sensor_id;sensor_type;location;lat;lon;timestamp;P1;durP1;ratioP1;P2;durP2;ratioP2
9960;SDS011;5021;51.506;11.320;2024-02-14T00:00:34;10.87;;;6.10;;
9960;SDS011;5021;51.506;11.320;2024-02-14T00:03:00;7.17;;;5.80;;
9960;SDS011;5021;51.506;11.320;2024-02-14T00:05:26;6.50;;;5.50;;
9960;SDS011;5021;51.506;11.320;2024-02-14T00:07:53;7.87;;;6.10;;
9960;SDS011;5021;51.506;11.320;2024-02-14T00:10:19;7.93;;;5.40;;
9960;SDS011;5021;51.506;11.320;2024-02-14T00:12:45;7.73;;;5.63;;
9960;SDS011;5021;51.506;11.320;2024-02-14T00:15:12;7.93;;;6.03;;
9960;SDS011;5021;51.506;11.320;2024-02-14T00:17:38;10.70;;;7.43;;
9960;SDS011;5021;51.506;11.320;2024-02-14T00:20:04;10.23;;;7.60;;
9960;SDS011;5021;51.506;11.320;2024-02-14T00:22:30;8.83;;;5.77;;
9960;SDS011;5021;51.506;11.320;2024-02-14T00:24:56;8.37;;;6.10;;
9960;SDS011;5021;51.506;11.320;2024-02-14T00:27:22;6.07;;;5.33;;
9960;SDS011;5021;51.506;11.320;2024-02-14T00:29:50;6.63;;;5.53;;
9960;SDS011;5021;51.506;11.320;2024-02-14T00:32:18;10.43;;;8.10;;
9960;SDS011;5021;51.506;11.320;2024-02-14T00:34:44;10.33;;;7.77;;
9960;SDS011;5021;51.506;11.320;2024-02-14T00:37:10;10.37;;;7.57;;
9960;SDS011;5021;51.506;11.320;2024-02-14T00:39:36;9.17;;;6.87;;
9960;SDS011;5021;51.506;11.320;2024-02-14T00:42:02;9.40;;;6.83;;
9960;SDS011;5021;51.506;11.320;2024-02-14T00:44:28;7.67;;;6.13;;
9960;SDS011;5021;51.506;11.320;2024-02-14T00:46:57;6.93;;;5.87;;
9960;SDS011;5021;51.506;11.320;2024-02-14T00:49:27;9.67;;;7.63;;
9960;SDS011;5021;51.506;11.320;2024-02-14T00:51:53;9.03;;;6.80;;
9960;SDS011;5021;51.506;11.320;2024-02-14T00:54:20;8.97;;;7.20;;
9960;SDS011;5021;51.506;11.320;2024-02-14T00:56:46;10.70;;;7.60;;
9960;SDS011;5021;51.506;11.320;2024-02-14T00:59:12;11.37;;;8.23;;
9960;SDS011;5021;51.506;11.320;2024-02-14T01:01:38;9.77;;;7.97;;
9960;SDS011;5021;51.506;11.320;2024-02-14T01:04:04;13.90;;;9.97;;
9960;SDS011;5021;51.506;11.320;2024-02-14T01:06:30;12.80;;;8.17;;
9960;SDS011;5021;51.506;11.320;2024-02-14T01:08:56;11.37;;;8.60;;
9960;SDS011;5021;51.506;11.320;2024-02-14T01:11:22;10.50;;;7.77;;
9960;SDS011;5021;51.506;11.320;2024-02-14T01:13:48;11.07;;;8.00;;
9960;SDS011;5021;51.506;11.320;2024-02-14T01:16:14;11.57;;;7.53;;
9960;SDS011;5021;51.506;11.320;2024-02-14T01:18:40;8.77;;;7.47;;
9960;SDS011;5021;51.506;11.320;2024-02-14T01:21:06;9.93;;;7.30;;
9960;SDS011;5021;51.506;11.320;2024-02-14T01:23:32;9.27;;;6.50;;
9960;SDS011;5021;51.506;11.320;2024-02-14T01:25:58;8.93;;;7.00;;
9960;SDS011;5021;51.506;11.320;2024-02-14T01:28:24;9.97;;;6.90;;
9960;SDS011;5021;51.506;11.320;2024-02-14T01:30:50;7.60;;;6.60;;
9960;SDS011;5021;51.506;11.320;2024-02-14T01:33:16;8.80;;;6.63;;
9960;SDS011;5021;51.506;11.320;2024-02-14T01:35:42;9.93;;;6.40;;
9960;SDS011;5021;51.506;11.320;2024-02-14T01:38:08;8.13;;;6.30;;
9960;SDS011;5021;51.506;11.320;2024-02-14T01:40:34;6.80;;;6.10;;
9960;SDS011;5021;51.506;11.320;2024-02-14T01:43:00;7.90;;;6.93;;
9960;SDS011;5021;51.506;11.320;2024-02-14T01:45:26;8.47;;;6.47;;
9960;SDS011;5021;51.506;11.320;2024-02-14T01:47:52;7.07;;;5.90;;
9960;SDS011;5021;51.506;11.320;2024-02-14T01:50:20;8.87;;;6.73;;
9960;SDS011;5021;51.506;11.320;2024-02-14T01:52:53;7.57;;;6.10;;
9960;SDS011;5021;51.506;11.320;2024-02-14T01:55:19;8.73;;;6.07;;
9960;SDS011;5021;51.506;11.320;2024-02-14T01:57:46;6.80;;;6.00;;
9960;SDS011;5021;51.506;11.320;2024-02-14T02:00:13;7.67;;;6.40;;
9960;SDS011;5021;51.506;11.320;2024-02-14T02:02:40;6.87;;;6.03;;
9960;SDS011;5021;51.506;11.320;2024-02-14T02:05:06;8.43;;;6.93;;
9960;SDS011;5021;51.506;11.320;2024-02-14T02:07:32;7.90;;;6.10;;
9960;SDS011;5021;51.506;11.320;2024-02-14T02:09:58;8.37;;;6.40;;
9960;SDS011;5021;51.506;11.320;2024-02-14T02:12:24;8.03;;;6.10;;
9960;SDS011;5021;51.506;11.320;2024-02-14T02:14:52;9.27;;;6.60;;
9960;SDS011;5021;51.506;11.320;2024-02-14T02:17:17;7.53;;;6.10;;
9960;SDS011;5021;51.506;11.320;2024-02-14T02:19:43;8.13;;;5.57;;
9960;SDS011;5021;51.506;11.320;2024-02-14T02:22:09;6.87;;;5.80;;
9960;SDS011;5021;51.506;11.320;2024-02-14T02:24:35;7.43;;;5.83;;
9960;SDS011;5021;51.506;11.320;2024-02-14T02:27:02;7.37;;;5.80;;
9960;SDS011;5021;51.506;11.320;2024-02-14T02:29:28;8.23;;;6.13;;
9960;SDS011;5021;51.506;11.320;2024-02-14T02:31:53;9.10;;;6.43;;
9960;SDS011;5021;51.506;11.320;2024-02-14T02:34:19;9.07;;;6.40;;
9960;SDS011;5021;51.506;11.320;2024-02-14T02:36:45;7.77;;;6.10;;
9960;SDS011;5021;51.506;11.320;2024-02-14T02:39:12;7.80;;;6.40;;
9960;SDS011;5021;51.506;11.320;2024-02-14T02:41:39;7.43;;;6.17;;
9960;SDS011;5021;51.506;11.320;2024-02-14T02:44:04;9.60;;;6.57;;
9960;SDS011;5021;51.506;11.320;2024-02-14T02:46:31;8.67;;;6.93;;
9960;SDS011;5021;51.506;11.320;2024-02-14T02:48:57;8.80;;;6.60;;
9960;SDS011;5021;51.506;11.320;2024-02-14T02:51:23;8.30;;;6.43;;
9960;SDS011;5021;51.506;11.320;2024-02-14T02:53:49;9.60;;;6.43;;
9960;SDS011;5021;51.506;11.320;2024-02-14T02:56:17;8.80;;;6.77;;
9960;SDS011;5021;51.506;11.320;2024-02-14T02:58:43;10.73;;;6.77;;
9960;SDS011;5021;51.506;11.320;2024-02-14T03:01:09;8.77;;;6.50;;
9960;SDS011;5021;51.506;11.320;2024-02-14T03:03:36;8.17;;;7.07;;
9960;SDS011;5021;51.506;11.320;2024-02-14T03:06:03;8.57;;;7.00;;
9960;SDS011;5021;51.506;11.320;2024-02-14T03:08:29;10.50;;;7.10;;
9960;SDS011;5021;51.506;11.320;2024-02-14T03:11:02;8.53;;;6.70;;
9960;SDS011;5021;51.506;11.320;2024-02-14T03:13:28;8.70;;;6.17;;
9960;SDS011;5021;51.506;11.320;2024-02-14T03:15:54;8.30;;;6.40;;
9960;SDS011;5021;51.506;11.320;2024-02-14T03:18:22;7.43;;;6.10;;
9960;SDS011;5021;51.506;11.320;2024-02-14T03:20:48;6.73;;;6.03;;
9960;SDS011;5021;51.506;11.320;2024-02-14T03:23:15;7.93;;;5.70;;
9960;SDS011;5021;51.506;11.320;2024-02-14T03:25:41;8.57;;;6.20;;
9960;SDS011;5021;51.506;11.320;2024-02-14T03:28:07;7.53;;;6.57;;
9960;SDS011;5021;51.506;11.320;2024-02-14T03:30:36;7.73;;;6.13;;
9960;SDS011;5021;51.506;11.320;2024-02-14T03:33:04;7.93;;;6.20;;
9960;SDS011;5021;51.506;11.320;2024-02-14T03:35:30;7.73;;;6.20;;
9960;SDS011;5021;51.506;11.320;2024-02-14T03:37:56;8.13;;;6.23;;
9960;SDS011;5021;51.506;11.320;2024-02-14T03:40:22;7.37;;;6.37;;
9960;SDS011;5021;51.506;11.320;2024-02-14T03:42:48;7.77;;;6.03;;
9960;SDS011;5021;51.506;11.320;2024-02-14T03:45:14;8.07;;;5.93;;
9960;SDS011;5021;51.506;11.320;2024-02-14T03:47:40;7.97;;;6.23;;
9960;SDS011;5021;51.506;11.320;2024-02-14T03:50:07;7.33;;;5.70;;
9960;SDS011;5021;51.506;11.320;2024-02-14T03:52:33;8.23;;;6.00;;
9960;SDS011;5021;51.506;11.320;2024-02-14T03:54:59;7.30;;;5.90;;
9960;SDS011;5021;51.506;11.320;2024-02-14T03:57:26;8.13;;;5.73;;
9960;SDS011;5021;51.506;11.320;2024-02-14T03:59:55;8.87;;;6.23;;
9960;SDS011;5021;51.506;11.320;2024-02-14T04:02:24;9.40;;;5.97;;
9960;SDS011;5021;51.506;11.320;2024-02-14T04:04:51;7.20;;;6.20;;
9960;SDS011;5021;51.506;11.320;2024-02-14T04:07:16;8.67;;;5.80;;
9960;SDS011;5021;51.506;11.320;2024-02-14T04:09:43;10.13;;;6.20;;
9960;SDS011;5021;51.506;11.320;2024-02-14T04:12:08;8.73;;;5.77;;
9960;SDS011;5021;51.506;11.320;2024-02-14T04:14:35;8.07;;;6.20;;
9960;SDS011;5021;51.506;11.320;2024-02-14T04:17:02;8.00;;;5.53;;
9960;SDS011;5021;51.506;11.320;2024-02-14T04:19:28;6.60;;;5.37;;
9960;SDS011;5021;51.506;11.320;2024-02-14T04:21:54;7.47;;;5.57;;
9960;SDS011;5021;51.506;11.320;2024-02-14T04:24:20;7.17;;;5.07;;
9960;SDS011;5021;51.506;11.320;2024-02-14T04:26:46;7.97;;;5.67;;
9960;SDS011;5021;51.506;11.320;2024-02-14T04:29:14;7.83;;;5.40;;
9960;SDS011;5021;51.506;11.320;2024-02-14T04:31:40;6.33;;;5.20;;
9960;SDS011;5021;51.506;11.320;2024-02-14T04:34:07;7.40;;;5.50;;
9960;SDS011;5021;51.506;11.320;2024-02-14T04:36:35;6.37;;;4.90;;
9960;SDS011;5021;51.506;11.320;2024-02-14T04:39:01;6.73;;;4.97;;
9960;SDS011;5021;51.506;11.320;2024-02-14T04:41:27;5.10;;;4.60;;
9960;SDS011;5021;51.506;11.320;2024-02-14T04:43:52;6.43;;;4.50;;
9960;SDS011;5021;51.506;11.320;2024-02-14T04:46:18;6.23;;;4.90;;
9960;SDS011;5021;51.506;11.320;2024-02-14T04:48:47;9.77;;;6.10;;
9960;SDS011;5021;51.506;11.320;2024-02-14T04:51:13;6.90;;;6.03;;
9960;SDS011;5021;51.506;11.320;2024-02-14T04:53:39;8.73;;;5.60;;
9960;SDS011;5021;51.506;11.320;2024-02-14T04:56:05;8.07;;;6.23;;
9960;SDS011;5021;51.506;11.320;2024-02-14T04:58:31;7.43;;;6.20;;
9960;SDS011;5021;51.506;11.320;2024-02-14T05:00:57;5.93;;;5.03;;
9960;SDS011;5021;51.506;11.320;2024-02-14T05:03:23;6.70;;;6.00;;
9960;SDS011;5021;51.506;11.320;2024-02-14T05:05:49;7.73;;;5.67;;
9960;SDS011;5021;51.506;11.320;2024-02-14T05:08:16;7.03;;;5.47;;
9960;SDS011;5021;51.506;11.320;2024-02-14T05:10:41;6.50;;;5.53;;
9960;SDS011;5021;51.506;11.320;2024-02-14T05:13:07;7.17;;;5.40;;
9960;SDS011;5021;51.506;11.320;2024-02-14T05:15:33;7.63;;;5.57;;
9960;SDS011;5021;51.506;11.320;2024-02-14T05:18:00;6.50;;;4.80;;
9960;SDS011;5021;51.506;11.320;2024-02-14T05:20:26;5.07;;;4.20;;
9960;SDS011;5021;51.506;11.320;2024-02-14T05:22:52;4.97;;;3.80;;
9960;SDS011;5021;51.506;11.320;2024-02-14T05:25:18;6.93;;;3.77;;
9960;SDS011;5021;51.506;11.320;2024-02-14T05:27:44;5.93;;;4.03;;
9960;SDS011;5021;51.506;11.320;2024-02-14T05:30:12;4.20;;;3.57;;
9960;SDS011;5021;51.506;11.320;2024-02-14T05:32:37;4.83;;;3.97;;
9960;SDS011;5021;51.506;11.320;2024-02-14T05:35:04;5.00;;;3.60;;
9960;SDS011;5021;51.506;11.320;2024-02-14T05:37:31;4.80;;;3.30;;
9960;SDS011;5021;51.506;11.320;2024-02-14T05:39:57;4.53;;;3.40;;
9960;SDS011;5021;51.506;11.320;2024-02-14T05:42:23;5.53;;;3.73;;
9960;SDS011;5021;51.506;11.320;2024-02-14T05:44:49;3.50;;;3.20;;
9960;SDS011;5021;51.506;11.320;2024-02-14T05:47:17;5.10;;;3.27;;
9960;SDS011;5021;51.506;11.320;2024-02-14T05:49:43;7.13;;;3.70;;
9960;SDS011;5021;51.506;11.320;2024-02-14T05:52:09;4.17;;;3.57;;
9960;SDS011;5021;51.506;11.320;2024-02-14T05:54:35;5.60;;;2.93;;
9960;SDS011;5021;51.506;11.320;2024-02-14T05:57:01;4.13;;;3.03;;
9960;SDS011;5021;51.506;11.320;2024-02-14T05:59:27;4.30;;;3.03;;
9960;SDS011;5021;51.506;11.320;2024-02-14T06:01:54;3.53;;;3.10;;
9960;SDS011;5021;51.506;11.320;2024-02-14T06:04:20;6.00;;;3.23;;
9960;SDS011;5021;51.506;11.320;2024-02-14T06:06:46;5.13;;;2.67;;
9960;SDS011;5021;51.506;11.320;2024-02-14T06:09:12;4.63;;;3.00;;
9960;SDS011;5021;51.506;11.320;2024-02-14T06:11:38;4.10;;;2.60;;
9960;SDS011;5021;51.506;11.320;2024-02-14T06:14:08;3.10;;;2.80;;
9960;SDS011;5021;51.506;11.320;2024-02-14T06:16:34;3.60;;;3.20;;
9960;SDS011;5021;51.506;11.320;2024-02-14T06:19:00;3.93;;;2.80;;
9960;SDS011;5021;51.506;11.320;2024-02-14T06:21:29;5.17;;;3.00;;
9960;SDS011;5021;51.506;11.320;2024-02-14T06:23:55;3.30;;;2.80;;
9960;SDS011;5021;51.506;11.320;2024-02-14T06:26:23;3.50;;;2.73;;
9960;SDS011;5021;51.506;11.320;2024-02-14T06:28:49;4.00;;;2.70;;
9960;SDS011;5021;51.506;11.320;2024-02-14T06:31:19;3.83;;;2.93;;
9960;SDS011;5021;51.506;11.320;2024-02-14T06:33:45;5.00;;;3.20;;
9960;SDS011;5021;51.506;11.320;2024-02-14T06:36:11;5.73;;;3.40;;
9960;SDS011;5021;51.506;11.320;2024-02-14T06:38:37;5.20;;;2.93;;
9960;SDS011;5021;51.506;11.320;2024-02-14T06:41:03;4.60;;;3.03;;
9960;SDS011;5021;51.506;11.320;2024-02-14T06:43:29;5.67;;;2.97;;
9960;SDS011;5021;51.506;11.320;2024-02-14T06:45:55;3.77;;;3.00;;
9960;SDS011;5021;51.506;11.320;2024-02-14T06:48:22;5.37;;;3.00;;
9960;SDS011;5021;51.506;11.320;2024-02-14T06:50:49;3.50;;;2.63;;
9960;SDS011;5021;51.506;11.320;2024-02-14T06:53:15;3.13;;;2.80;;
9960;SDS011;5021;51.506;11.320;2024-02-14T06:55:41;3.83;;;3.10;;
9960;SDS011;5021;51.506;11.320;2024-02-14T06:58:06;5.33;;;3.10;;
9960;SDS011;5021;51.506;11.320;2024-02-14T07:00:33;4.30;;;2.80;;
9960;SDS011;5021;51.506;11.320;2024-02-14T07:02:59;3.47;;;2.70;;
9960;SDS011;5021;51.506;11.320;2024-02-14T07:05:26;5.03;;;2.93;;
9960;SDS011;5021;51.506;11.320;2024-02-14T07:07:54;3.60;;;2.80;;
9960;SDS011;5021;51.506;11.320;2024-02-14T07:10:19;4.33;;;2.83;;
9960;SDS011;5021;51.506;11.320;2024-02-14T07:12:45;3.50;;;2.60;;
9960;SDS011;5021;51.506;11.320;2024-02-14T07:15:11;3.60;;;2.50;;
9960;SDS011;5021;51.506;11.320;2024-02-14T07:17:37;5.33;;;2.83;;
9960;SDS011;5021;51.506;11.320;2024-02-14T07:20:04;4.40;;;3.27;;
9960;SDS011;5021;51.506;11.320;2024-02-14T07:22:30;7.03;;;3.47;;
9960;SDS011;5021;51.506;11.320;2024-02-14T07:24:56;5.63;;;3.53;;
9960;SDS011;5021;51.506;11.320;2024-02-14T07:27:22;6.23;;;3.23;;
9960;SDS011;5021;51.506;11.320;2024-02-14T07:29:49;5.17;;;3.07;;
9960;SDS011;5021;51.506;11.320;2024-02-14T07:32:15;5.30;;;2.80;;
9960;SDS011;5021;51.506;11.320;2024-02-14T07:34:41;4.77;;;3.00;;
9960;SDS011;5021;51.506;11.320;2024-02-14T07:37:08;4.47;;;3.00;;
9960;SDS011;5021;51.506;11.320;2024-02-14T07:39:34;3.90;;;2.47;;
9960;SDS011;5021;51.506;11.320;2024-02-14T07:42:00;2.77;;;2.53;;
9960;SDS011;5021;51.506;11.320;2024-02-14T07:44:26;2.83;;;2.53;;
9960;SDS011;5021;51.506;11.320;2024-02-14T07:46:52;5.13;;;3.17;;
9960;SDS011;5021;51.506;11.320;2024-02-14T07:49:18;4.43;;;3.23;;
9960;SDS011;5021;51.506;11.320;2024-02-14T07:51:44;4.50;;;2.80;;
9960;SDS011;5021;51.506;11.320;2024-02-14T07:54:10;5.83;;;3.30;;
9960;SDS011;5021;51.506;11.320;2024-02-14T07:56:36;5.30;;;3.30;;
9960;SDS011;5021;51.506;11.320;2024-02-14T07:59:02;6.47;;;3.20;;
9960;SDS011;5021;51.506;11.320;2024-02-14T08:01:30;4.13;;;2.63;;
9960;SDS011;5021;51.506;11.320;2024-02-14T08:03:57;4.17;;;2.93;;
9960;SDS011;5021;51.506;11.320;2024-02-14T08:06:23;5.27;;;2.50;;
9960;SDS011;5021;51.506;11.320;2024-02-14T08:08:49;5.87;;;2.77;;
9960;SDS011;5021;51.506;11.320;2024-02-14T08:11:18;4.10;;;2.27;;
9960;SDS011;5021;51.506;11.320;2024-02-14T08:13:44;4.00;;;2.60;;
9960;SDS011;5021;51.506;11.320;2024-02-14T08:16:11;5.83;;;2.73;;
9960;SDS011;5021;51.506;11.320;2024-02-14T08:18:37;3.20;;;2.40;;
9960;SDS011;5021;51.506;11.320;2024-02-14T08:21:04;3.63;;;2.50;;
9960;SDS011;5021;51.506;11.320;2024-02-14T08:23:31;6.13;;;2.70;;
9960;SDS011;5021;51.506;11.320;2024-02-14T08:25:59;3.73;;;2.43;;
9960;SDS011;5021;51.506;11.320;2024-02-14T08:28:25;3.47;;;2.60;;
9960;SDS011;5021;51.506;11.320;2024-02-14T08:30:51;3.50;;;2.47;;
9960;SDS011;5021;51.506;11.320;2024-02-14T08:33:17;4.70;;;2.30;;
9960;SDS011;5021;51.506;11.320;2024-02-14T08:35:43;5.00;;;3.50;;
9960;SDS011;5021;51.506;11.320;2024-02-14T08:38:09;3.70;;;2.67;;
9960;SDS011;5021;51.506;11.320;2024-02-14T08:40:34;5.97;;;2.40;;
9960;SDS011;5021;51.506;11.320;2024-02-14T08:43:01;6.30;;;2.60;;
9960;SDS011;5021;51.506;11.320;2024-02-14T08:45:27;3.20;;;2.60;;
9960;SDS011;5021;51.506;11.320;2024-02-14T08:47:55;3.73;;;2.20;;
9960;SDS011;5021;51.506;11.320;2024-02-14T08:50:21;3.87;;;2.43;;
9960;SDS011;5021;51.506;11.320;2024-02-14T08:52:47;2.90;;;2.37;;
9960;SDS011;5021;51.506;11.320;2024-02-14T08:55:13;3.83;;;2.70;;
9960;SDS011;5021;51.506;11.320;2024-02-14T08:57:43;4.50;;;2.63;;
9960;SDS011;5021;51.506;11.320;2024-02-14T09:00:10;3.50;;;2.60;;
9960;SDS011;5021;51.506;11.320;2024-02-14T09:02:38;3.47;;;2.73;;
9960;SDS011;5021;51.506;11.320;2024-02-14T09:05:04;4.33;;;2.50;;
9960;SDS011;5021;51.506;11.320;2024-02-14T09:07:30;5.33;;;2.73;;
9960;SDS011;5021;51.506;11.320;2024-02-14T09:09:58;2.57;;;2.20;;
9960;SDS011;5021;51.506;11.320;2024-02-14T09:12:24;3.40;;;2.60;;
9960;SDS011;5021;51.506;11.320;2024-02-14T09:14:50;4.57;;;2.43;;
9960;SDS011;5021;51.506;11.320;2024-02-14T09:17:16;5.33;;;3.37;;
9960;SDS011;5021;51.506;11.320;2024-02-14T09:19:42;5.53;;;3.63;;
9960;SDS011;5021;51.506;11.320;2024-02-14T09:22:08;4.73;;;4.00;;
9960;SDS011;5021;51.506;11.320;2024-02-14T09:24:34;5.33;;;3.83;;
9960;SDS011;5021;51.506;11.320;2024-02-14T09:27:00;5.20;;;3.27;;
9960;SDS011;5021;51.506;11.320;2024-02-14T09:29:27;5.57;;;2.90;;
9960;SDS011;5021;51.506;11.320;2024-02-14T09:31:53;4.53;;;3.00;;
9960;SDS011;5021;51.506;11.320;2024-02-14T09:34:19;3.63;;;2.90;;
9960;SDS011;5021;51.506;11.320;2024-02-14T09:36:47;6.33;;;3.33;;
9960;SDS011;5021;51.506;11.320;2024-02-14T09:39:18;6.00;;;3.40;;
9960;SDS011;5021;51.506;11.320;2024-02-14T09:41:44;5.13;;;3.00;;
9960;SDS011;5021;51.506;11.320;2024-02-14T09:44:12;4.53;;;2.83;;
9960;SDS011;5021;51.506;11.320;2024-02-14T09:46:38;5.63;;;3.23;;
9960;SDS011;5021;51.506;11.320;2024-02-14T09:49:04;4.03;;;2.87;;
9960;SDS011;5021;51.506;11.320;2024-02-14T09:51:31;5.70;;;3.00;;
9960;SDS011;5021;51.506;11.320;2024-02-14T09:53:57;4.43;;;2.77;;
9960;SDS011;5021;51.506;11.320;2024-02-14T09:56:25;4.37;;;2.80;;
9960;SDS011;5021;51.506;11.320;2024-02-14T09:58:52;8.23;;;2.73;;
9960;SDS011;5021;51.506;11.320;2024-02-14T10:01:22;5.33;;;3.23;;
9960;SDS011;5021;51.506;11.320;2024-02-14T10:03:49;5.40;;;3.50;;
9960;SDS011;5021;51.506;11.320;2024-02-14T10:06:15;4.20;;;3.17;;
9960;SDS011;5021;51.506;11.320;2024-02-14T10:08:41;6.97;;;3.93;;
9960;SDS011;5021;51.506;11.320;2024-02-14T10:11:07;4.53;;;3.10;;
9960;SDS011;5021;51.506;11.320;2024-02-14T10:13:35;4.77;;;3.17;;
9960;SDS011;5021;51.506;11.320;2024-02-14T10:16:01;4.77;;;2.93;;
9960;SDS011;5021;51.506;11.320;2024-02-14T10:18:28;4.60;;;2.70;;
9960;SDS011;5021;51.506;11.320;2024-02-14T10:20:55;3.90;;;3.17;;
9960;SDS011;5021;51.506;11.320;2024-02-14T10:23:21;8.23;;;3.50;;
9960;SDS011;5021;51.506;11.320;2024-02-14T10:25:49;5.47;;;2.97;;
9960;SDS011;5021;51.506;11.320;2024-02-14T10:28:15;5.67;;;2.80;;
9960;SDS011;5021;51.506;11.320;2024-02-14T10:30:44;2.90;;;2.60;;
9960;SDS011;5021;51.506;11.320;2024-02-14T10:33:10;4.33;;;2.67;;
9960;SDS011;5021;51.506;11.320;2024-02-14T10:35:36;5.47;;;2.77;;
9960;SDS011;5021;51.506;11.320;2024-02-14T10:38:06;4.47;;;2.77;;
9960;SDS011;5021;51.506;11.320;2024-02-14T10:40:34;3.90;;;3.03;;
9960;SDS011;5021;51.506;11.320;2024-02-14T10:43:01;5.53;;;3.17;;
9960;SDS011;5021;51.506;11.320;2024-02-14T10:45:27;5.63;;;3.53;;
9960;SDS011;5021;51.506;11.320;2024-02-14T10:47:53;4.57;;;3.30;;
9960;SDS011;5021;51.506;11.320;2024-02-14T10:50:22;4.40;;;3.00;;
9960;SDS011;5021;51.506;11.320;2024-02-14T10:52:49;4.80;;;3.00;;
9960;SDS011;5021;51.506;11.320;2024-02-14T10:55:18;3.87;;;2.80;;
9960;SDS011;5021;51.506;11.320;2024-02-14T10:57:47;4.67;;;2.93;;
9960;SDS011;5021;51.506;11.320;2024-02-14T11:00:15;3.73;;;2.73;;
9960;SDS011;5021;51.506;11.320;2024-02-14T11:02:43;4.13;;;2.93;;
9960;SDS011;5021;51.506;11.320;2024-02-14T11:05:15;3.03;;;2.60;;
9960;SDS011;5021;51.506;11.320;2024-02-14T11:07:47;4.33;;;3.10;;
9960;SDS011;5021;51.506;11.320;2024-02-14T11:10:17;4.83;;;3.43;;
9960;SDS011;5021;51.506;11.320;2024-02-14T11:12:43;3.43;;;2.50;;
9960;SDS011;5021;51.506;11.320;2024-02-14T11:15:17;4.93;;;2.50;;
9960;SDS011;5021;51.506;11.320;2024-02-14T11:17:43;4.17;;;2.83;;
9960;SDS011;5021;51.506;11.320;2024-02-14T11:20:16;5.23;;;3.07;;
9960;SDS011;5021;51.506;11.320;2024-02-14T11:22:56;3.53;;;2.80;;
9960;SDS011;5021;51.506;11.320;2024-02-14T11:25:23;3.37;;;2.97;;
9960;SDS011;5021;51.506;11.320;2024-02-14T11:27:49;5.87;;;3.30;;
9960;SDS011;5021;51.506;11.320;2024-02-14T11:30:15;3.50;;;2.43;;
9960;SDS011;5021;51.506;11.320;2024-02-14T11:32:52;6.00;;;3.00;;
9960;SDS011;5021;51.506;11.320;2024-02-14T11:35:18;2.67;;;2.40;;
9960;SDS011;5021;51.506;11.320;2024-02-14T11:37:44;4.47;;;2.80;;
9960;SDS011;5021;51.506;11.320;2024-02-14T11:40:19;5.00;;;2.87;;
9960;SDS011;5021;51.506;11.320;2024-02-14T11:42:46;4.00;;;2.83;;
9960;SDS011;5021;51.506;11.320;2024-02-14T11:45:12;3.50;;;2.60;;
9960;SDS011;5021;51.506;11.320;2024-02-14T11:47:38;3.87;;;2.57;;
9960;SDS011;5021;51.506;11.320;2024-02-14T11:50:04;3.73;;;2.93;;
9960;SDS011;5021;51.506;11.320;2024-02-14T11:52:30;5.33;;;3.23;;
9960;SDS011;5021;51.506;11.320;2024-02-14T11:54:56;3.07;;;2.77;;
9960;SDS011;5021;51.506;11.320;2024-02-14T11:57:25;5.83;;;2.97;;
9960;SDS011;5021;51.506;11.320;2024-02-14T11:59:51;4.97;;;2.80;;
9960;SDS011;5021;51.506;11.320;2024-02-14T12:02:18;6.57;;;3.37;;
9960;SDS011;5021;51.506;11.320;2024-02-14T12:04:45;4.77;;;3.07;;
9960;SDS011;5021;51.506;11.320;2024-02-14T12:07:11;4.50;;;3.00;;
9960;SDS011;5021;51.506;11.320;2024-02-14T12:09:38;4.73;;;2.90;;
9960;SDS011;5021;51.506;11.320;2024-02-14T12:12:04;5.07;;;2.73;;
9960;SDS011;5021;51.506;11.320;2024-02-14T12:14:31;4.20;;;3.07;;
9960;SDS011;5021;51.506;11.320;2024-02-14T12:17:01;4.00;;;2.70;;
9960;SDS011;5021;51.506;11.320;2024-02-14T12:19:31;5.73;;;2.93;;
9960;SDS011;5021;51.506;11.320;2024-02-14T12:21:59;3.00;;;2.20;;
9960;SDS011;5021;51.506;11.320;2024-02-14T12:24:29;3.97;;;2.80;;
9960;SDS011;5021;51.506;11.320;2024-02-14T12:26:55;3.17;;;2.47;;
9960;SDS011;5021;51.506;11.320;2024-02-14T12:29:23;5.00;;;2.63;;
9960;SDS011;5021;51.506;11.320;2024-02-14T12:31:49;4.17;;;2.40;;
9960;SDS011;5021;51.506;11.320;2024-02-14T12:34:15;3.30;;;2.80;;
9960;SDS011;5021;51.506;11.320;2024-02-14T12:36:43;4.00;;;2.50;;
9960;SDS011;5021;51.506;11.320;2024-02-14T12:39:08;4.20;;;2.90;;
9960;SDS011;5021;51.506;11.320;2024-02-14T12:41:37;4.40;;;2.40;;
9960;SDS011;5021;51.506;11.320;2024-02-14T12:44:05;4.20;;;2.97;;
9960;SDS011;5021;51.506;11.320;2024-02-14T12:46:32;4.43;;;2.77;;
9960;SDS011;5021;51.506;11.320;2024-02-14T12:48:58;4.27;;;3.10;;
9960;SDS011;5021;51.506;11.320;2024-02-14T12:51:24;3.10;;;2.77;;
9960;SDS011;5021;51.506;11.320;2024-02-14T12:53:53;3.33;;;2.80;;
9960;SDS011;5021;51.506;11.320;2024-02-14T12:56:19;3.73;;;2.87;;
9960;SDS011;5021;51.506;11.320;2024-02-14T12:58:45;5.23;;;2.70;;
9960;SDS011;5021;51.506;11.320;2024-02-14T13:01:12;2.90;;;2.20;;
9960;SDS011;5021;51.506;11.320;2024-02-14T13:03:39;4.07;;;2.40;;
9960;SDS011;5021;51.506;11.320;2024-02-14T13:06:05;4.13;;;2.60;;
9960;SDS011;5021;51.506;11.320;2024-02-14T13:08:31;2.57;;;2.30;;
9960;SDS011;5021;51.506;11.320;2024-02-14T13:10:57;4.67;;;2.70;;
9960;SDS011;5021;51.506;11.320;2024-02-14T13:13:23;4.40;;;2.70;;
9960;SDS011;5021;51.506;11.320;2024-02-14T13:15:49;4.83;;;2.83;;
9960;SDS011;5021;51.506;11.320;2024-02-14T13:18:15;4.17;;;2.73;;
9960;SDS011;5021;51.506;11.320;2024-02-14T13:20:41;4.80;;;3.03;;
9960;SDS011;5021;51.506;11.320;2024-02-14T13:23:09;2.87;;;2.60;;
9960;SDS011;5021;51.506;11.320;2024-02-14T13:25:35;4.57;;;2.93;;
9960;SDS011;5021;51.506;11.320;2024-02-14T13:28:02;4.10;;;2.83;;
9960;SDS011;5021;51.506;11.320;2024-02-14T13:30:28;4.47;;;2.90;;
9960;SDS011;5021;51.506;11.320;2024-02-14T13:32:55;4.00;;;2.67;;
9960;SDS011;5021;51.506;11.320;2024-02-14T13:35:21;3.80;;;2.53;;
9960;SDS011;5021;51.506;11.320;2024-02-14T13:37:47;3.10;;;2.80;;
9960;SDS011;5021;51.506;11.320;2024-02-14T13:40:13;4.27;;;2.77;;
9960;SDS011;5021;51.506;11.320;2024-02-14T13:42:39;3.80;;;2.73;;
9960;SDS011;5021;51.506;11.320;2024-02-14T13:45:06;6.67;;;2.80;;
9960;SDS011;5021;51.506;11.320;2024-02-14T13:47:38;5.33;;;2.83;;
9960;SDS011;5021;51.506;11.320;2024-02-14T13:50:05;5.17;;;2.70;;
9960;SDS011;5021;51.506;11.320;2024-02-14T13:52:32;5.57;;;2.70;;
9960;SDS011;5021;51.506;11.320;2024-02-14T13:54:59;3.57;;;2.50;;
9960;SDS011;5021;51.506;11.320;2024-02-14T13:57:27;4.70;;;3.10;;
9960;SDS011;5021;51.506;11.320;2024-02-14T13:59:53;3.90;;;2.60;;
9960;SDS011;5021;51.506;11.320;2024-02-14T14:02:19;5.43;;;3.23;;
9960;SDS011;5021;51.506;11.320;2024-02-14T14:04:45;4.73;;;3.60;;
9960;SDS011;5021;51.506;11.320;2024-02-14T14:07:11;3.83;;;3.10;;
9960;SDS011;5021;51.506;11.320;2024-02-14T14:09:37;5.67;;;3.87;;
9960;SDS011;5021;51.506;11.320;2024-02-14T14:12:03;3.60;;;3.30;;
9960;SDS011;5021;51.506;11.320;2024-02-14T14:14:29;3.63;;;2.87;;
9960;SDS011;5021;51.506;11.320;2024-02-14T14:16:55;4.50;;;3.10;;
9960;SDS011;5021;51.506;11.320;2024-02-14T14:19:22;2.60;;;2.40;;
9960;SDS011;5021;51.506;11.320;2024-02-14T14:21:48;4.13;;;2.40;;
9960;SDS011;5021;51.506;11.320;2024-02-14T14:24:14;3.70;;;2.50;;
9960;SDS011;5021;51.506;11.320;2024-02-14T14:26:40;4.37;;;2.50;;
9960;SDS011;5021;51.506;11.320;2024-02-14T14:29:06;5.20;;;2.67;;
9960;SDS011;5021;51.506;11.320;2024-02-14T14:31:33;3.57;;;2.60;;
9960;SDS011;5021;51.506;11.320;2024-02-14T14:34:00;3.77;;;2.60;;
9960;SDS011;5021;51.506;11.320;2024-02-14T14:36:26;4.80;;;2.53;;
9960;SDS011;5021;51.506;11.320;2024-02-14T14:38:52;3.97;;;2.90;;
9960;SDS011;5021;51.506;11.320;2024-02-14T14:41:21;4.43;;;2.60;;
9960;SDS011;5021;51.506;11.320;2024-02-14T14:43:47;3.73;;;2.80;;
9960;SDS011;5021;51.506;11.320;2024-02-14T14:46:14;3.00;;;2.70;;
9960;SDS011;5021;51.506;11.320;2024-02-14T14:48:40;2.53;;;2.30;;
9960;SDS011;5021;51.506;11.320;2024-02-14T14:51:06;3.47;;;2.60;;
9960;SDS011;5021;51.506;11.320;2024-02-14T14:53:33;3.37;;;2.30;;
9960;SDS011;5021;51.506;11.320;2024-02-14T14:56:00;3.80;;;2.47;;